sensor_id;sensor_type;location;lat;lon;timestamp;P1;durP1;ratioP1;P2;durP2;ratioP2
54935;SDS011;40838;50.676;7.838;2024-03-08T00:00:28;32.72;;;16.20;;
54935;SDS011;40838;50.676;7.838;2024-03-08T00:02:58;33.97;;;17.48;;
54935;SDS011;40838;50.676;7.838;2024-03-08T00:05:27;33.33;;;16.65;;
54935;SDS011;40838;50.676;7.838;2024-03-08T00:07:54;38.08;;;17.38;;
54935;SDS011;40838;50.676;7.838;2024-03-08T00:10:21;34.10;;;17.02;;
54935;SDS011;40838;50.676;7.838;2024-03-08T00:12:48;29.58;;;15.85;;
54935;SDS011;40838;50.676;7.838;2024-03-08T00:15:17;33.05;;;17.08;;
54935;SDS011;40838;50.676;7.838;2024-03-08T00:17:45;32.63;;;16.48;;
54935;SDS011;40838;50.676;7.838;2024-03-08T00:20:12;36.42;;;17.10;;
54935;SDS011;40838;50.676;7.838;2024-03-08T00:22:39;29.58;;;15.38;;
54935;SDS011;40838;50.676;7.838;2024-03-08T00:25:07;30.65;;;15.68;;
54935;SDS011;40838;50.676;7.838;2024-03-08T00:27:35;36.85;;;17.50;;
54935;SDS011;40838;50.676;7.838;2024-03-08T00:30:02;38.20;;;17.42;;
54935;SDS011;40838;50.676;7.838;2024-03-08T00:32:30;32.00;;;16.90;;
54935;SDS011;40838;50.676;7.838;2024-03-08T00:34:58;34.90;;;17.08;;
54935;SDS011;40838;50.676;7.838;2024-03-08T00:37:25;36.00;;;16.98;;
54935;SDS011;40838;50.676;7.838;2024-03-08T00:39:52;38.90;;;17.83;;
54935;SDS011;40838;50.676;7.838;2024-03-08T00:42:19;29.60;;;16.05;;
54935;SDS011;40838;50.676;7.838;2024-03-08T00:44:46;28.63;;;16.05;;
54935;SDS011;40838;50.676;7.838;2024-03-08T00:47:16;33.97;;;16.50;;
54935;SDS011;40838;50.676;7.838;2024-03-08T00:49:43;29.75;;;15.88;;
54935;SDS011;40838;50.676;7.838;2024-03-08T00:52:11;33.30;;;17.23;;
54935;SDS011;40838;50.676;7.838;2024-03-08T00:54:38;30.45;;;16.15;;
54935;SDS011;40838;50.676;7.838;2024-03-08T00:57:05;34.85;;;17.77;;
54935;SDS011;40838;50.676;7.838;2024-03-08T00:59:31;41.35;;;17.55;;
54935;SDS011;40838;50.676;7.838;2024-03-08T01:01:58;36.65;;;17.25;;
54935;SDS011;40838;50.676;7.838;2024-03-08T01:04:25;37.40;;;17.48;;
54935;SDS011;40838;50.676;7.838;2024-03-08T01:06:54;32.10;;;16.67;;
54935;SDS011;40838;50.676;7.838;2024-03-08T01:09:22;35.20;;;17.13;;
54935;SDS011;40838;50.676;7.838;2024-03-08T01:11:49;33.55;;;17.77;;
54935;SDS011;40838;50.676;7.838;2024-03-08T01:14:19;32.20;;;17.02;;
54935;SDS011;40838;50.676;7.838;2024-03-08T01:16:47;32.35;;;15.98;;
54935;SDS011;40838;50.676;7.838;2024-03-08T01:19:14;38.30;;;17.80;;
54935;SDS011;40838;50.676;7.838;2024-03-08T01:21:41;32.50;;;16.10;;
54935;SDS011;40838;50.676;7.838;2024-03-08T01:24:07;37.67;;;17.52;;
54935;SDS011;40838;50.676;7.838;2024-03-08T01:26:36;35.42;;;16.58;;
54935;SDS011;40838;50.676;7.838;2024-03-08T01:29:02;35.60;;;16.27;;
54935;SDS011;40838;50.676;7.838;2024-03-08T01:31:29;37.47;;;17.48;;
54935;SDS011;40838;50.676;7.838;2024-03-08T01:33:56;31.92;;;16.85;;
54935;SDS011;40838;50.676;7.838;2024-03-08T01:36:22;33.05;;;16.67;;
54935;SDS011;40838;50.676;7.838;2024-03-08T01:38:50;38.40;;;18.48;;
54935;SDS011;40838;50.676;7.838;2024-03-08T01:41:16;37.17;;;17.67;;
54935;SDS011;40838;50.676;7.838;2024-03-08T01:43:45;31.77;;;17.10;;
54935;SDS011;40838;50.676;7.838;2024-03-08T01:46:12;37.30;;;16.65;;
54935;SDS011;40838;50.676;7.838;2024-03-08T01:48:41;32.42;;;17.35;;
54935;SDS011;40838;50.676;7.838;2024-03-08T01:51:08;35.53;;;16.80;;
54935;SDS011;40838;50.676;7.838;2024-03-08T01:53:37;34.70;;;17.23;;
54935;SDS011;40838;50.676;7.838;2024-03-08T01:56:04;35.00;;;16.48;;
54935;SDS011;40838;50.676;7.838;2024-03-08T01:58:32;35.15;;;17.10;;
54935;SDS011;40838;50.676;7.838;2024-03-08T02:01:00;31.85;;;16.48;;
54935;SDS011;40838;50.676;7.838;2024-03-08T02:03:29;31.83;;;16.15;;
54935;SDS011;40838;50.676;7.838;2024-03-08T02:05:56;31.13;;;16.83;;
54935;SDS011;40838;50.676;7.838;2024-03-08T02:08:24;32.83;;;16.13;;
54935;SDS011;40838;50.676;7.838;2024-03-08T02:10:51;30.10;;;15.88;;
54935;SDS011;40838;50.676;7.838;2024-03-08T02:13:17;30.95;;;16.17;;
54935;SDS011;40838;50.676;7.838;2024-03-08T02:15:54;32.08;;;16.08;;
54935;SDS011;40838;50.676;7.838;2024-03-08T02:18:25;32.17;;;16.27;;
54935;SDS011;40838;50.676;7.838;2024-03-08T02:20:54;38.50;;;17.80;;
54935;SDS011;40838;50.676;7.838;2024-03-08T02:23:22;33.42;;;16.00;;
54935;SDS011;40838;50.676;7.838;2024-03-08T02:25:50;29.92;;;16.17;;
54935;SDS011;40838;50.676;7.838;2024-03-08T02:28:18;31.00;;;17.00;;
54935;SDS011;40838;50.676;7.838;2024-03-08T02:30:45;32.83;;;16.02;;
54935;SDS011;40838;50.676;7.838;2024-03-08T02:33:13;41.15;;;18.60;;
54935;SDS011;40838;50.676;7.838;2024-03-08T02:35:42;35.13;;;16.25;;
54935;SDS011;40838;50.676;7.838;2024-03-08T02:38:12;36.45;;;16.90;;
54935;SDS011;40838;50.676;7.838;2024-03-08T02:40:41;33.17;;;16.45;;
54935;SDS011;40838;50.676;7.838;2024-03-08T02:43:08;34.60;;;16.73;;
54935;SDS011;40838;50.676;7.838;2024-03-08T02:45:35;29.98;;;15.60;;
54935;SDS011;40838;50.676;7.838;2024-03-08T02:48:02;37.85;;;17.40;;
54935;SDS011;40838;50.676;7.838;2024-03-08T02:50:29;33.65;;;16.17;;
54935;SDS011;40838;50.676;7.838;2024-03-08T02:52:56;33.15;;;17.08;;
54935;SDS011;40838;50.676;7.838;2024-03-08T02:55:24;37.45;;;17.23;;
54935;SDS011;40838;50.676;7.838;2024-03-08T02:57:51;36.15;;;17.17;;
54935;SDS011;40838;50.676;7.838;2024-03-08T03:00:19;36.42;;;17.15;;
54935;SDS011;40838;50.676;7.838;2024-03-08T03:02:48;41.70;;;18.27;;
54935;SDS011;40838;50.676;7.838;2024-03-08T03:05:17;32.33;;;16.25;;
54935;SDS011;40838;50.676;7.838;2024-03-08T03:07:44;37.35;;;18.02;;
54935;SDS011;40838;50.676;7.838;2024-03-08T03:10:10;35.03;;;16.95;;
54935;SDS011;40838;50.676;7.838;2024-03-08T03:12:43;39.88;;;18.00;;
54935;SDS011;40838;50.676;7.838;2024-03-08T03:15:11;36.83;;;17.65;;
54935;SDS011;40838;50.676;7.838;2024-03-08T03:17:37;34.40;;;17.05;;
54935;SDS011;40838;50.676;7.838;2024-03-08T03:20:05;32.90;;;16.92;;
54935;SDS011;40838;50.676;7.838;2024-03-08T03:22:38;38.70;;;17.08;;
54935;SDS011;40838;50.676;7.838;2024-03-08T03:25:06;38.53;;;18.23;;
54935;SDS011;40838;50.676;7.838;2024-03-08T03:27:34;39.80;;;17.73;;
54935;SDS011;40838;50.676;7.838;2024-03-08T03:30:03;42.80;;;18.80;;
54935;SDS011;40838;50.676;7.838;2024-03-08T03:33:04;36.67;;;18.40;;
54935;SDS011;40838;50.676;7.838;2024-03-08T03:35:32;35.90;;;17.52;;
54935;SDS011;40838;50.676;7.838;2024-03-08T03:37:59;36.42;;;16.80;;
54935;SDS011;40838;50.676;7.838;2024-03-08T03:40:31;35.17;;;17.40;;
54935;SDS011;40838;50.676;7.838;2024-03-08T03:42:58;42.72;;;19.23;;
54935;SDS011;40838;50.676;7.838;2024-03-08T03:45:26;38.97;;;18.20;;
54935;SDS011;40838;50.676;7.838;2024-03-08T03:47:53;34.90;;;18.55;;
54935;SDS011;40838;50.676;7.838;2024-03-08T03:50:21;40.38;;;17.73;;
54935;SDS011;40838;50.676;7.838;2024-03-08T03:52:48;41.28;;;19.58;;
54935;SDS011;40838;50.676;7.838;2024-03-08T03:55:15;46.70;;;18.52;;
54935;SDS011;40838;50.676;7.838;2024-03-08T03:57:43;34.88;;;17.05;;
54935;SDS011;40838;50.676;7.838;2024-03-08T04:00:11;43.85;;;19.50;;
54935;SDS011;40838;50.676;7.838;2024-03-08T04:02:40;36.45;;;17.98;;
54935;SDS011;40838;50.676;7.838;2024-03-08T04:05:07;37.38;;;17.73;;
54935;SDS011;40838;50.676;7.838;2024-03-08T04:07:36;36.83;;;18.50;;
54935;SDS011;40838;50.676;7.838;2024-03-08T04:10:04;44.97;;;18.42;;
54935;SDS011;40838;50.676;7.838;2024-03-08T04:12:32;41.28;;;16.50;;
54935;SDS011;40838;50.676;7.838;2024-03-08T04:14:59;41.15;;;19.15;;
54935;SDS011;40838;50.676;7.838;2024-03-08T04:17:26;40.97;;;19.63;;
54935;SDS011;40838;50.676;7.838;2024-03-08T04:19:53;45.42;;;20.33;;
54935;SDS011;40838;50.676;7.838;2024-03-08T04:22:20;45.78;;;21.75;;
54935;SDS011;40838;50.676;7.838;2024-03-08T04:24:49;43.20;;;19.70;;
54935;SDS011;40838;50.676;7.838;2024-03-08T04:27:16;40.00;;;19.38;;
54935;SDS011;40838;50.676;7.838;2024-03-08T04:29:43;43.45;;;18.80;;
54935;SDS011;40838;50.676;7.838;2024-03-08T04:32:09;44.10;;;19.20;;
54935;SDS011;40838;50.676;7.838;2024-03-08T04:34:38;43.80;;;19.50;;
54935;SDS011;40838;50.676;7.838;2024-03-08T04:37:05;43.10;;;19.42;;
54935;SDS011;40838;50.676;7.838;2024-03-08T04:39:36;35.20;;;18.02;;
54935;SDS011;40838;50.676;7.838;2024-03-08T04:42:04;45.78;;;19.58;;
54935;SDS011;40838;50.676;7.838;2024-03-08T04:44:35;44.03;;;19.75;;
54935;SDS011;40838;50.676;7.838;2024-03-08T04:47:02;43.78;;;19.05;;
54935;SDS011;40838;50.676;7.838;2024-03-08T04:49:31;42.45;;;19.20;;
54935;SDS011;40838;50.676;7.838;2024-03-08T04:52:00;38.08;;;17.92;;
54935;SDS011;40838;50.676;7.838;2024-03-08T04:54:28;45.40;;;20.67;;
54935;SDS011;40838;50.676;7.838;2024-03-08T04:56:55;42.70;;;18.50;;
54935;SDS011;40838;50.676;7.838;2024-03-08T04:59:23;49.03;;;20.63;;
54935;SDS011;40838;50.676;7.838;2024-03-08T05:01:50;45.80;;;20.48;;
54935;SDS011;40838;50.676;7.838;2024-03-08T05:04:17;47.55;;;21.42;;
54935;SDS011;40838;50.676;7.838;2024-03-08T05:06:44;42.28;;;19.52;;
54935;SDS011;40838;50.676;7.838;2024-03-08T05:09:11;44.47;;;19.85;;
54935;SDS011;40838;50.676;7.838;2024-03-08T05:11:40;44.88;;;20.85;;
54935;SDS011;40838;50.676;7.838;2024-03-08T05:14:07;52.97;;;21.33;;
54935;SDS011;40838;50.676;7.838;2024-03-08T05:16:35;46.80;;;21.23;;
54935;SDS011;40838;50.676;7.838;2024-03-08T05:19:02;46.55;;;21.13;;
54935;SDS011;40838;50.676;7.838;2024-03-08T05:21:29;49.92;;;21.92;;
54935;SDS011;40838;50.676;7.838;2024-03-08T05:23:56;49.47;;;21.35;;
54935;SDS011;40838;50.676;7.838;2024-03-08T05:26:22;45.35;;;20.88;;
54935;SDS011;40838;50.676;7.838;2024-03-08T05:28:49;52.28;;;22.63;;
54935;SDS011;40838;50.676;7.838;2024-03-08T05:31:18;50.25;;;22.40;;
54935;SDS011;40838;50.676;7.838;2024-03-08T05:33:49;48.80;;;22.55;;
54935;SDS011;40838;50.676;7.838;2024-03-08T05:36:16;52.05;;;23.80;;
54935;SDS011;40838;50.676;7.838;2024-03-08T05:38:43;59.15;;;23.38;;
54935;SDS011;40838;50.676;7.838;2024-03-08T05:41:09;55.47;;;24.35;;
54935;SDS011;40838;50.676;7.838;2024-03-08T05:43:37;50.40;;;22.08;;
54935;SDS011;40838;50.676;7.838;2024-03-08T05:46:04;47.63;;;22.20;;
54935;SDS011;40838;50.676;7.838;2024-03-08T05:48:31;48.17;;;22.15;;
54935;SDS011;40838;50.676;7.838;2024-03-08T05:50:59;46.65;;;21.48;;
54935;SDS011;40838;50.676;7.838;2024-03-08T05:53:28;46.15;;;20.90;;
54935;SDS011;40838;50.676;7.838;2024-03-08T05:55:57;48.22;;;21.30;;
54935;SDS011;40838;50.676;7.838;2024-03-08T05:58:24;45.08;;;21.27;;
54935;SDS011;40838;50.676;7.838;2024-03-08T06:00:50;39.60;;;19.38;;
54935;SDS011;40838;50.676;7.838;2024-03-08T06:03:17;47.45;;;21.38;;
54935;SDS011;40838;50.676;7.838;2024-03-08T06:05:47;49.15;;;21.45;;
54935;SDS011;40838;50.676;7.838;2024-03-08T06:08:17;41.53;;;19.02;;
54935;SDS011;40838;50.676;7.838;2024-03-08T06:10:45;40.13;;;18.67;;
54935;SDS011;40838;50.676;7.838;2024-03-08T06:13:14;44.13;;;20.02;;
54935;SDS011;40838;50.676;7.838;2024-03-08T06:15:41;46.55;;;20.17;;
54935;SDS011;40838;50.676;7.838;2024-03-08T06:18:10;45.78;;;19.75;;
54935;SDS011;40838;50.676;7.838;2024-03-08T06:20:37;39.42;;;19.75;;
54935;SDS011;40838;50.676;7.838;2024-03-08T06:23:04;40.33;;;19.35;;
54935;SDS011;40838;50.676;7.838;2024-03-08T06:25:32;34.42;;;18.88;;
54935;SDS011;40838;50.676;7.838;2024-03-08T06:28:00;32.85;;;18.05;;
54935;SDS011;40838;50.676;7.838;2024-03-08T06:30:27;39.28;;;18.23;;
54935;SDS011;40838;50.676;7.838;2024-03-08T06:32:54;39.22;;;19.45;;
54935;SDS011;40838;50.676;7.838;2024-03-08T06:35:20;33.65;;;17.33;;
54935;SDS011;40838;50.676;7.838;2024-03-08T06:37:47;35.88;;;18.88;;
54935;SDS011;40838;50.676;7.838;2024-03-08T06:40:14;30.65;;;17.13;;
54935;SDS011;40838;50.676;7.838;2024-03-08T06:42:43;31.05;;;17.25;;
54935;SDS011;40838;50.676;7.838;2024-03-08T06:45:10;43.50;;;18.60;;
54935;SDS011;40838;50.676;7.838;2024-03-08T06:47:37;31.98;;;17.40;;
54935;SDS011;40838;50.676;7.838;2024-03-08T06:50:07;33.83;;;17.05;;
54935;SDS011;40838;50.676;7.838;2024-03-08T06:52:34;34.42;;;17.15;;
54935;SDS011;40838;50.676;7.838;2024-03-08T06:55:01;31.65;;;17.08;;
54935;SDS011;40838;50.676;7.838;2024-03-08T06:57:28;32.08;;;16.67;;
54935;SDS011;40838;50.676;7.838;2024-03-08T06:59:57;32.30;;;17.27;;
54935;SDS011;40838;50.676;7.838;2024-03-08T07:02:24;35.72;;;17.67;;
54935;SDS011;40838;50.676;7.838;2024-03-08T07:04:50;30.45;;;16.38;;
54935;SDS011;40838;50.676;7.838;2024-03-08T07:07:18;30.02;;;16.23;;
54935;SDS011;40838;50.676;7.838;2024-03-08T07:09:46;32.60;;;16.65;;
54935;SDS011;40838;50.676;7.838;2024-03-08T07:12:14;31.50;;;17.75;;
54935;SDS011;40838;50.676;7.838;2024-03-08T07:14:42;29.92;;;15.75;;
54935;SDS011;40838;50.676;7.838;2024-03-08T07:17:10;31.05;;;14.90;;
54935;SDS011;40838;50.676;7.838;2024-03-08T07:19:37;32.35;;;18.52;;
54935;SDS011;40838;50.676;7.838;2024-03-08T07:22:04;33.03;;;15.90;;
54935;SDS011;40838;50.676;7.838;2024-03-08T07:24:34;32.90;;;17.42;;
54935;SDS011;40838;50.676;7.838;2024-03-08T07:27:17;30.77;;;16.33;;
54935;SDS011;40838;50.676;7.838;2024-03-08T07:29:43;28.70;;;15.65;;
54935;SDS011;40838;50.676;7.838;2024-03-08T07:32:12;31.30;;;16.13;;
54935;SDS011;40838;50.676;7.838;2024-03-08T07:34:46;31.88;;;16.50;;
54935;SDS011;40838;50.676;7.838;2024-03-08T07:37:14;27.30;;;15.23;;
54935;SDS011;40838;50.676;7.838;2024-03-08T07:39:41;32.85;;;16.42;;
54935;SDS011;40838;50.676;7.838;2024-03-08T07:42:08;29.77;;;16.65;;
54935;SDS011;40838;50.676;7.838;2024-03-08T07:44:36;30.63;;;15.88;;
54935;SDS011;40838;50.676;7.838;2024-03-08T07:47:03;30.30;;;15.40;;
54935;SDS011;40838;50.676;7.838;2024-03-08T07:49:34;26.85;;;14.57;;
54935;SDS011;40838;50.676;7.838;2024-03-08T07:52:00;29.55;;;15.20;;
54935;SDS011;40838;50.676;7.838;2024-03-08T07:54:29;26.77;;;14.35;;
54935;SDS011;40838;50.676;7.838;2024-03-08T07:56:56;27.13;;;15.70;;
54935;SDS011;40838;50.676;7.838;2024-03-08T07:59:24;27.65;;;15.30;;
54935;SDS011;40838;50.676;7.838;2024-03-08T08:01:51;28.13;;;15.13;;
54935;SDS011;40838;50.676;7.838;2024-03-08T08:04:17;30.67;;;16.27;;
54935;SDS011;40838;50.676;7.838;2024-03-08T08:06:51;27.77;;;15.85;;
54935;SDS011;40838;50.676;7.838;2024-03-08T08:09:17;28.85;;;16.23;;
54935;SDS011;40838;50.676;7.838;2024-03-08T08:11:54;26.10;;;15.38;;
54935;SDS011;40838;50.676;7.838;2024-03-08T08:14:21;24.85;;;14.57;;
54935;SDS011;40838;50.676;7.838;2024-03-08T08:16:47;26.70;;;15.23;;
54935;SDS011;40838;50.676;7.838;2024-03-08T08:19:16;27.75;;;16.10;;
54935;SDS011;40838;50.676;7.838;2024-03-08T08:21:43;29.33;;;16.15;;
54935;SDS011;40838;50.676;7.838;2024-03-08T08:24:12;28.73;;;14.93;;
54935;SDS011;40838;50.676;7.838;2024-03-08T08:26:39;28.33;;;15.30;;
54935;SDS011;40838;50.676;7.838;2024-03-08T08:29:06;23.65;;;13.65;;
54935;SDS011;40838;50.676;7.838;2024-03-08T08:31:33;29.25;;;15.48;;
54935;SDS011;40838;50.676;7.838;2024-03-08T08:34:01;25.73;;;14.70;;
54935;SDS011;40838;50.676;7.838;2024-03-08T08:36:28;26.42;;;15.50;;
54935;SDS011;40838;50.676;7.838;2024-03-08T08:38:56;25.33;;;14.50;;
54935;SDS011;40838;50.676;7.838;2024-03-08T08:41:26;26.60;;;13.48;;
54935;SDS011;40838;50.676;7.838;2024-03-08T08:43:54;26.42;;;14.43;;
54935;SDS011;40838;50.676;7.838;2024-03-08T08:46:21;24.77;;;14.40;;
54935;SDS011;40838;50.676;7.838;2024-03-08T08:48:48;24.23;;;14.40;;
54935;SDS011;40838;50.676;7.838;2024-03-08T08:51:15;24.02;;;13.02;;
54935;SDS011;40838;50.676;7.838;2024-03-08T08:53:42;22.02;;;12.20;;
54935;SDS011;40838;50.676;7.838;2024-03-08T08:56:10;22.08;;;12.93;;
54935;SDS011;40838;50.676;7.838;2024-03-08T08:58:39;27.92;;;16.02;;
54935;SDS011;40838;50.676;7.838;2024-03-08T09:01:07;21.17;;;11.85;;
54935;SDS011;40838;50.676;7.838;2024-03-08T09:03:35;32.25;;;13.23;;
54935;SDS011;40838;50.676;7.838;2024-03-08T09:06:02;21.33;;;13.77;;
54935;SDS011;40838;50.676;7.838;2024-03-08T09:08:29;27.27;;;14.32;;
54935;SDS011;40838;50.676;7.838;2024-03-08T09:10:56;24.38;;;14.10;;
54935;SDS011;40838;50.676;7.838;2024-03-08T09:13:24;23.92;;;14.32;;
54935;SDS011;40838;50.676;7.838;2024-03-08T09:15:53;21.27;;;12.80;;
54935;SDS011;40838;50.676;7.838;2024-03-08T09:18:20;21.27;;;12.90;;
54935;SDS011;40838;50.676;7.838;2024-03-08T09:20:47;31.95;;;13.80;;
54935;SDS011;40838;50.676;7.838;2024-03-08T09:23:13;21.58;;;12.40;;
54935;SDS011;40838;50.676;7.838;2024-03-08T09:25:42;23.05;;;14.07;;
54935;SDS011;40838;50.676;7.838;2024-03-08T09:28:09;23.45;;;14.35;;
54935;SDS011;40838;50.676;7.838;2024-03-08T09:30:37;22.10;;;12.68;;
54935;SDS011;40838;50.676;7.838;2024-03-08T09:33:05;19.80;;;12.25;;
54935;SDS011;40838;50.676;7.838;2024-03-08T09:35:32;20.40;;;13.85;;
54935;SDS011;40838;50.676;7.838;2024-03-08T09:37:59;22.30;;;12.50;;
54935;SDS011;40838;50.676;7.838;2024-03-08T09:40:26;23.63;;;13.40;;
54935;SDS011;40838;50.676;7.838;2024-03-08T09:42:54;22.58;;;14.82;;
54935;SDS011;40838;50.676;7.838;2024-03-08T09:45:20;25.27;;;13.25;;
54935;SDS011;40838;50.676;7.838;2024-03-08T09:47:49;32.70;;;14.95;;
54935;SDS011;40838;50.676;7.838;2024-03-08T09:50:17;21.58;;;12.32;;
54935;SDS011;40838;50.676;7.838;2024-03-08T09:52:46;23.63;;;11.73;;
54935;SDS011;40838;50.676;7.838;2024-03-08T09:55:14;17.85;;;11.63;;
54935;SDS011;40838;50.676;7.838;2024-03-08T09:57:42;22.08;;;12.65;;
54935;SDS011;40838;50.676;7.838;2024-03-08T10:00:31;20.13;;;12.18;;
54935;SDS011;40838;50.676;7.838;2024-03-08T10:03:00;22.40;;;12.85;;
54935;SDS011;40838;50.676;7.838;2024-03-08T10:05:29;22.15;;;13.88;;
54935;SDS011;40838;50.676;7.838;2024-03-08T10:07:58;21.55;;;12.23;;
54935;SDS011;40838;50.676;7.838;2024-03-08T10:10:24;21.92;;;12.85;;
54935;SDS011;40838;50.676;7.838;2024-03-08T10:12:51;19.77;;;11.82;;
54935;SDS011;40838;50.676;7.838;2024-03-08T10:15:19;19.48;;;11.57;;
54935;SDS011;40838;50.676;7.838;2024-03-08T10:17:46;19.88;;;12.23;;
54935;SDS011;40838;50.676;7.838;2024-03-08T10:20:14;22.02;;;12.75;;
54935;SDS011;40838;50.676;7.838;2024-03-08T10:22:43;21.10;;;11.68;;
54935;SDS011;40838;50.676;7.838;2024-03-08T10:25:10;21.80;;;12.30;;
54935;SDS011;40838;50.676;7.838;2024-03-08T10:27:37;18.52;;;10.80;;
54935;SDS011;40838;50.676;7.838;2024-03-08T10:30:06;19.92;;;13.02;;
54935;SDS011;40838;50.676;7.838;2024-03-08T10:32:37;18.00;;;11.57;;
54935;SDS011;40838;50.676;7.838;2024-03-08T10:35:07;19.52;;;10.43;;
54935;SDS011;40838;50.676;7.838;2024-03-08T10:37:35;19.40;;;11.10;;
54935;SDS011;40838;50.676;7.838;2024-03-08T10:40:15;17.95;;;10.10;;
54935;SDS011;40838;50.676;7.838;2024-03-08T10:42:47;16.00;;;10.57;;
54935;SDS011;40838;50.676;7.838;2024-03-08T10:45:22;16.77;;;10.60;;
54935;SDS011;40838;50.676;7.838;2024-03-08T10:48:08;16.65;;;10.05;;
54935;SDS011;40838;50.676;7.838;2024-03-08T10:50:45;18.33;;;9.95;;
54935;SDS011;40838;50.676;7.838;2024-03-08T10:53:15;17.67;;;10.90;;
54935;SDS011;40838;50.676;7.838;2024-03-08T10:55:47;16.58;;;9.95;;
54935;SDS011;40838;50.676;7.838;2024-03-08T10:58:18;15.20;;;9.23;;
54935;SDS011;40838;50.676;7.838;2024-03-08T11:00:46;16.73;;;10.25;;
54935;SDS011;40838;50.676;7.838;2024-03-08T11:06:15;15.35;;;9.93;;
54935;SDS011;40838;50.676;7.838;2024-03-08T11:08:43;18.05;;;10.50;;
54935;SDS011;40838;50.676;7.838;2024-03-08T11:11:26;17.23;;;11.35;;
54935;SDS011;40838;50.676;7.838;2024-03-08T11:13:56;16.40;;;8.75;;
54935;SDS011;40838;50.676;7.838;2024-03-08T11:16:43;17.25;;;9.07;;
54935;SDS011;40838;50.676;7.838;2024-03-08T11:19:23;17.75;;;8.98;;
54935;SDS011;40838;50.676;7.838;2024-03-08T11:21:59;13.48;;;8.20;;
54935;SDS011;40838;50.676;7.838;2024-03-08T11:24:27;12.25;;;8.52;;
54935;SDS011;40838;50.676;7.838;2024-03-08T11:27:05;13.75;;;8.80;;
54935;SDS011;40838;50.676;7.838;2024-03-08T11:29:32;15.68;;;8.27;;
54935;SDS011;40838;50.676;7.838;2024-03-08T11:32:05;11.88;;;8.00;;
54935;SDS011;40838;50.676;7.838;2024-03-08T11:34:34;14.98;;;8.95;;
54935;SDS011;40838;50.676;7.838;2024-03-08T11:37:03;12.38;;;8.48;;
54935;SDS011;40838;50.676;7.838;2024-03-08T11:39:30;12.85;;;8.52;;
54935;SDS011;40838;50.676;7.838;2024-03-08T11:41:58;13.38;;;9.05;;
54935;SDS011;40838;50.676;7.838;2024-03-08T11:44:27;14.85;;;8.85;;
54935;SDS011;40838;50.676;7.838;2024-03-08T11:46:56;15.52;;;9.02;;
54935;SDS011;40838;50.676;7.838;2024-03-08T11:49:23;14.90;;;8.50;;
54935;SDS011;40838;50.676;7.838;2024-03-08T11:51:51;19.60;;;10.15;;
54935;SDS011;40838;50.676;7.838;2024-03-08T11:54:18;18.50;;;11.27;;
54935;SDS011;40838;50.676;7.838;2024-03-08T11:56:45;17.23;;;9.98;;
54935;SDS011;40838;50.676;7.838;2024-03-08T11:59:13;17.90;;;10.75;;
54935;SDS011;40838;50.676;7.838;2024-03-08T12:01:41;17.92;;;11.48;;
54935;SDS011;40838;50.676;7.838;2024-03-08T12:04:11;19.25;;;11.45;;
54935;SDS011;40838;50.676;7.838;2024-03-08T12:06:39;18.02;;;9.85;;
54935;SDS011;40838;50.676;7.838;2024-03-08T12:09:10;14.70;;;9.55;;
54935;SDS011;40838;50.676;7.838;2024-03-08T12:11:38;17.13;;;10.38;;
54935;SDS011;40838;50.676;7.838;2024-03-08T12:14:05;20.67;;;12.02;;
54935;SDS011;40838;50.676;7.838;2024-03-08T12:16:32;18.63;;;11.23;;
54935;SDS011;40838;50.676;7.838;2024-03-08T12:19:00;19.17;;;11.43;;
54935;SDS011;40838;50.676;7.838;2024-03-08T12:21:31;17.88;;;10.40;;
54935;SDS011;40838;50.676;7.838;2024-03-08T12:24:01;17.45;;;11.02;;
54935;SDS011;40838;50.676;7.838;2024-03-08T12:26:30;18.00;;;10.88;;
54935;SDS011;40838;50.676;7.838;2024-03-08T12:31:45;17.23;;;10.07;;
54935;SDS011;40838;50.676;7.838;2024-03-08T12:34:14;17.10;;;10.68;;
54935;SDS011;40838;50.676;7.838;2024-03-08T12:36:47;17.48;;;9.95;;
54935;SDS011;40838;50.676;7.838;2024-03-08T12:41:43;19.65;;;10.85;;
54935;SDS011;40838;50.676;7.838;2024-03-08T12:44:12;20.35;;;10.82;;
54935;SDS011;40838;50.676;7.838;2024-03-08T12:46:38;16.70;;;11.23;;
54935;SDS011;40838;50.676;7.838;2024-03-08T12:49:09;18.48;;;11.40;;
54935;SDS011;40838;50.676;7.838;2024-03-08T12:51:38;21.30;;;11.38;;
54935;SDS011;40838;50.676;7.838;2024-03-08T12:54:06;17.50;;;10.45;;
54935;SDS011;40838;50.676;7.838;2024-03-08T12:56:34;17.90;;;10.05;;
54935;SDS011;40838;50.676;7.838;2024-03-08T12:59:02;17.50;;;10.65;;
54935;SDS011;40838;50.676;7.838;2024-03-08T13:01:31;19.75;;;11.27;;
54935;SDS011;40838;50.676;7.838;2024-03-08T13:03:58;18.27;;;10.68;;
54935;SDS011;40838;50.676;7.838;2024-03-08T13:06:25;18.80;;;10.00;;
54935;SDS011;40838;50.676;7.838;2024-03-08T13:08:55;17.70;;;10.13;;
54935;SDS011;40838;50.676;7.838;2024-03-08T13:11:22;17.13;;;9.85;;
54935;SDS011;40838;50.676;7.838;2024-03-08T13:13:49;18.60;;;10.93;;
54935;SDS011;40838;50.676;7.838;2024-03-08T13:16:17;16.70;;;9.30;;
54935;SDS011;40838;50.676;7.838;2024-03-08T13:18:45;17.05;;;10.32;;
54935;SDS011;40838;50.676;7.838;2024-03-08T13:21:14;17.30;;;9.27;;
54935;SDS011;40838;50.676;7.838;2024-03-08T13:23:45;14.23;;;8.38;;
54935;SDS011;40838;50.676;7.838;2024-03-08T13:26:16;15.70;;;8.90;;
54935;SDS011;40838;50.676;7.838;2024-03-08T13:28:43;18.00;;;9.40;;
54935;SDS011;40838;50.676;7.838;2024-03-08T13:31:10;13.80;;;7.80;;
54935;SDS011;40838;50.676;7.838;2024-03-08T13:33:37;13.75;;;8.30;;
54935;SDS011;40838;50.676;7.838;2024-03-08T13:36:06;9.30;;;6.57;;
54935;SDS011;40838;50.676;7.838;2024-03-08T13:38:40;10.68;;;6.60;;
54935;SDS011;40838;50.676;7.838;2024-03-08T13:41:09;10.73;;;6.82;;
54935;SDS011;40838;50.676;7.838;2024-03-08T13:43:37;13.95;;;7.35;;
54935;SDS011;40838;50.676;7.838;2024-03-08T13:46:05;12.90;;;8.02;;
54935;SDS011;40838;50.676;7.838;2024-03-08T13:48:32;11.73;;;7.38;;
54935;SDS011;40838;50.676;7.838;2024-03-08T13:50:59;12.73;;;8.07;;
54935;SDS011;40838;50.676;7.838;2024-03-08T13:53:26;12.13;;;8.00;;
54935;SDS011;40838;50.676;7.838;2024-03-08T13:55:53;12.98;;;7.40;;
54935;SDS011;40838;50.676;7.838;2024-03-08T13:58:21;12.18;;;7.03;;
54935;SDS011;40838;50.676;7.838;2024-03-08T14:00:50;9.93;;;7.15;;
54935;SDS011;40838;50.676;7.838;2024-03-08T14:03:17;13.75;;;8.13;;
54935;SDS011;40838;50.676;7.838;2024-03-08T14:05:44;15.18;;;8.05;;
54935;SDS011;40838;50.676;7.838;2024-03-08T14:08:12;13.57;;;7.57;;
54935;SDS011;40838;50.676;7.838;2024-03-08T14:10:39;13.20;;;7.88;;
54935;SDS011;40838;50.676;7.838;2024-03-08T14:13:07;12.00;;;7.05;;
54935;SDS011;40838;50.676;7.838;2024-03-08T14:15:34;11.23;;;6.70;;
54935;SDS011;40838;50.676;7.838;2024-03-08T14:18:03;13.63;;;8.02;;
54935;SDS011;40838;50.676;7.838;2024-03-08T14:20:32;16.13;;;8.57;;
54935;SDS011;40838;50.676;7.838;2024-03-08T14:22:58;13.57;;;8.32;;
54935;SDS011;40838;50.676;7.838;2024-03-08T14:25:25;12.70;;;7.68;;
54935;SDS011;40838;50.676;7.838;2024-03-08T14:27:55;13.93;;;7.78;;
54935;SDS011;40838;50.676;7.838;2024-03-08T14:30:23;12.60;;;7.63;;
54935;SDS011;40838;50.676;7.838;2024-03-08T14:33:04;14.18;;;8.82;;
54935;SDS011;40838;50.676;7.838;2024-03-08T14:35:34;18.35;;;8.50;;
54935;SDS011;40838;50.676;7.838;2024-03-08T14:38:01;15.55;;;10.02;;